createdAt,value
2018-04-12T00:02:02.504Z,89.89
2018-04-12T00:04:29.652Z,89.69
2018-04-12T00:06:56.077Z,90.10
2018-04-12T00:09:22.081Z,90.04
2018-04-12T00:11:48.586Z,90.34
2018-04-12T00:14:14.466Z,89.75
2018-04-12T00:16:40.294Z,90.04
2018-04-12T00:19:07.556Z,90.29
2018-04-12T00:21:34.275Z,90.02
2018-04-12T00:24:00.102Z,89.72
2018-04-12T00:26:25.917Z,89.64
2018-04-12T00:28:51.718Z,90.24
2018-04-12T00:31:18.609Z,90.15
2018-04-12T00:33:44.418Z,89.80
2018-04-12T00:36:10.241Z,90.37
2018-04-12T00:38:36.856Z,89.91
2018-04-12T00:41:02.690Z,90.58
2018-04-12T00:43:29.036Z,89.90
2018-04-12T00:45:55.109Z,89.79
2018-04-12T00:48:20.909Z,90.21
2018-04-12T00:50:46.713Z,90.03
2018-04-12T00:53:12.610Z,90.10
2018-04-12T00:55:38.420Z,90.12
2018-04-12T00:58:05.245Z,90.26
2018-04-12T01:00:31.098Z,90.62
2018-04-12T01:02:57.509Z,90.28
2018-04-12T01:05:24.154Z,90.01
2018-04-12T01:07:50.347Z,89.89
2018-04-12T01:10:17.241Z,90.09
2018-04-12T01:12:43.025Z,89.57
2018-04-12T01:15:08.865Z,89.42
2018-04-12T01:17:34.725Z,89.71
2018-04-12T01:20:00.579Z,89.58
2018-04-12T01:22:26.417Z,89.29
2018-04-12T01:24:52.237Z,89.28
2018-04-12T01:27:18.160Z,89.37
2018-04-12T01:29:43.960Z,88.98
2018-04-12T01:32:09.797Z,89.75
2018-04-12T01:34:36.586Z,89.74
2018-04-12T01:37:02.442Z,90.12
2018-04-12T01:39:28.283Z,90.15
2018-04-12T01:41:54.102Z,89.81
2018-04-12T01:44:19.942Z,89.75
2018-04-12T01:46:46.993Z,89.78
2018-04-12T01:49:13.389Z,89.90
2018-04-12T01:51:40.137Z,89.37
2018-04-12T01:54:06.016Z,89.78
2018-04-12T01:56:31.847Z,89.72
2018-04-12T01:58:58.010Z,89.65
2018-04-12T02:01:23.820Z,89.86
2018-04-12T02:03:49.681Z,90.08
2018-04-12T02:06:15.488Z,90.19
2018-04-12T02:08:41.294Z,90.38
2018-04-12T02:11:07.253Z,90.00
2018-04-12T02:13:40.187Z,90.04
2018-04-12T02:16:06.031Z,90.03
2018-04-12T02:18:31.880Z,90.46
2018-04-12T02:20:57.694Z,90.71
2018-04-12T02:23:24.168Z,89.88
2018-04-12T02:25:50.122Z,90.33
2018-04-12T02:28:15.933Z,90.08
2018-04-12T02:30:41.725Z,89.93
2018-04-12T02:33:07.566Z,90.74
2018-04-12T02:35:33.391Z,90.63
2018-04-12T02:37:59.197Z,90.29
2018-04-12T02:40:25.022Z,90.72
2018-04-12T02:42:50.813Z,90.78
2018-04-12T02:45:16.589Z,90.92
2018-04-12T02:47:42.509Z,91.37
2018-04-12T02:50:08.329Z,91.49
2018-04-12T02:52:34.118Z,91.49
2018-04-12T02:54:59.934Z,91.56
2018-04-12T02:57:25.725Z,91.50
2018-04-12T02:59:51.536Z,91.98
2018-04-12T03:02:17.365Z,92.06
2018-04-12T03:04:43.161Z,91.95
2018-04-12T03:07:08.950Z,91.88
2018-04-12T03:09:34.781Z,92.06
2018-04-12T03:12:00.594Z,92.27
2018-04-12T03:14:26.379Z,91.82
2018-04-12T03:16:52.818Z,92.39
2018-04-12T03:19:18.628Z,92.61
2018-04-12T03:21:44.418Z,92.23
2018-04-12T03:24:10.322Z,92.58
2018-04-12T03:26:36.117Z,92.86
2018-04-12T03:29:01.943Z,92.54
2018-04-12T03:31:28.045Z,92.75
2018-04-12T03:33:53.860Z,93.41
2018-04-12T03:36:19.654Z,93.45
2018-04-12T03:38:45.457Z,93.57
2018-04-12T03:41:11.244Z,93.38
2018-04-12T03:43:37.060Z,93.08
2018-04-12T03:46:02.857Z,93.64
2018-04-12T03:48:28.692Z,93.48
2018-04-12T03:50:54.564Z,93.61
2018-04-12T03:53:20.356Z,93.47
2018-04-12T03:55:46.142Z,93.47
2018-04-12T03:58:11.953Z,93.58
2018-04-12T04:00:37.762Z,93.76
2018-04-12T04:03:03.555Z,94.25
2018-04-12T04:05:29.347Z,94.58
2018-04-12T04:07:55.133Z,94.29
2018-04-12T04:10:20.931Z,94.17
2018-04-12T04:12:46.760Z,93.89
2018-04-12T04:15:25.015Z,94.43
2018-04-12T04:18:03.161Z,94.10
2018-04-12T04:20:41.178Z,94.62
2018-04-12T04:23:06.970Z,94.27
2018-04-12T04:25:32.788Z,94.40
2018-04-12T04:27:58.577Z,94.34
2018-04-12T04:30:25.177Z,94.42
2018-04-12T04:32:50.987Z,94.51
2018-04-12T04:35:16.783Z,94.46
2018-04-12T04:37:42.573Z,94.41
2018-04-12T04:40:08.383Z,94.25
2018-04-12T04:42:34.209Z,94.29
2018-04-12T04:45:00.055Z,94.51
2018-04-12T04:47:25.864Z,93.83
2018-04-12T04:49:51.656Z,94.27
2018-04-12T04:52:17.539Z,93.94
2018-04-12T04:54:43.328Z,94.36
2018-04-12T04:57:09.162Z,94.25
2018-04-12T04:59:34.982Z,93.85
2018-04-12T05:02:00.781Z,93.85
2018-04-12T05:04:26.578Z,93.97
2018-04-12T05:06:52.397Z,94.00
2018-04-12T05:09:18.199Z,94.20
2018-04-12T05:11:43.993Z,94.17
2018-04-12T05:14:09.821Z,94.39
2018-04-12T05:16:35.632Z,94.50
2018-04-12T05:19:01.429Z,94.25
2018-04-12T05:21:27.259Z,94.41
2018-04-12T05:23:53.061Z,94.06
2018-04-12T05:26:18.891Z,94.02
2018-04-12T05:28:44.786Z,93.90
2018-04-12T05:31:10.566Z,93.85
2018-04-12T05:33:36.354Z,93.97
2018-04-12T05:36:02.162Z,94.43
2018-04-12T05:38:28.006Z,94.94
2018-04-12T05:40:53.869Z,100.00
2018-04-12T05:43:19.890Z,97.09
2018-04-12T05:45:45.695Z,97.49
2018-04-12T05:48:11.491Z,92.69
2018-04-12T05:50:37.301Z,90.00
2018-04-12T05:53:03.114Z,90.93
2018-04-12T05:55:28.928Z,90.36
2018-04-12T05:57:54.739Z,89.71
2018-04-12T06:00:20.535Z,85.30
2018-04-12T06:02:46.321Z,88.92
2018-04-12T06:05:12.212Z,90.23
2018-04-12T06:07:38.015Z,90.33
2018-04-12T06:10:03.822Z,90.38
2018-04-12T06:12:29.652Z,90.50
2018-04-12T06:14:55.438Z,91.22
2018-04-12T06:17:21.231Z,91.32
2018-04-12T06:19:47.064Z,91.14
2018-04-12T06:22:13.179Z,90.91
2018-04-12T06:24:38.989Z,90.82
2018-04-12T06:27:04.789Z,90.81
2018-04-12T06:29:30.595Z,90.87
2018-04-12T06:31:56.407Z,90.48
2018-04-12T06:34:22.201Z,90.51
2018-04-12T06:36:47.993Z,90.43
2018-04-12T06:39:13.910Z,90.02
2018-04-12T06:41:39.751Z,90.33
2018-04-12T06:44:05.614Z,90.02
2018-04-12T06:46:31.455Z,89.70
2018-04-12T06:48:57.370Z,89.57
2018-04-12T06:51:23.158Z,89.36
2018-04-12T06:53:48.985Z,89.27
2018-04-12T06:56:14.846Z,89.16
2018-04-12T06:58:40.640Z,89.01
2018-04-12T07:01:06.439Z,89.08
2018-04-12T07:03:32.270Z,88.71
2018-04-12T07:05:58.071Z,88.54
2018-04-12T07:08:24.102Z,87.13
2018-04-12T07:10:49.966Z,85.92
2018-04-12T07:13:15.752Z,83.22
2018-04-12T07:15:41.542Z,83.91
2018-04-12T07:18:07.474Z,84.10
2018-04-12T07:20:33.270Z,83.09
2018-04-12T07:22:59.877Z,84.33
2018-04-12T07:25:26.560Z,84.59
2018-04-12T07:27:52.446Z,84.85
2018-04-12T07:30:18.275Z,85.00
2018-04-12T07:32:44.695Z,85.04
2018-04-12T07:35:10.618Z,85.67
2018-04-12T07:37:37.354Z,85.57
2018-04-12T07:40:03.191Z,85.49
2018-04-12T07:42:29.011Z,85.13
2018-04-12T07:44:55.665Z,84.85
2018-04-12T07:47:21.509Z,84.61
2018-04-12T07:49:47.771Z,84.66
2018-04-12T07:52:13.684Z,84.68
2018-04-12T07:54:39.546Z,83.94
2018-04-12T07:57:06.050Z,86.58
2018-04-12T07:59:31.911Z,84.26
2018-04-12T08:01:58.013Z,84.49
2018-04-12T08:04:23.886Z,84.47
2018-04-12T08:06:49.762Z,84.46
2018-04-12T08:09:16.348Z,84.45
2018-04-12T08:11:42.204Z,84.40
2018-04-12T08:14:08.006Z,84.18
2018-04-12T08:16:33.821Z,83.34
2018-04-12T08:18:59.610Z,83.07
2018-04-12T08:21:26.373Z,82.40
2018-04-12T08:23:52.233Z,82.75
2018-04-12T08:26:18.532Z,82.01
2018-04-12T08:28:45.294Z,81.96
2018-04-12T08:31:11.270Z,81.65
2018-04-12T08:33:37.537Z,81.30
2018-04-12T08:36:03.580Z,81.47
2018-04-12T08:38:29.437Z,81.04
2018-04-12T08:40:56.105Z,81.12
2018-04-12T08:43:21.962Z,80.48
2018-04-12T08:45:47.757Z,80.62
2018-04-12T08:48:13.570Z,80.11
2018-04-12T08:50:39.378Z,79.50
2018-04-12T08:53:05.182Z,79.94
2018-04-12T08:55:30.971Z,79.05
2018-04-12T08:57:56.791Z,78.71
2018-04-12T09:00:22.585Z,78.54
2018-04-12T09:02:48.369Z,78.69
2018-04-12T09:05:14.178Z,78.50
2018-04-12T09:07:39.978Z,78.24
2018-04-12T09:10:05.796Z,78.89
2018-04-12T09:12:31.608Z,75.18
2018-04-12T09:14:57.398Z,78.04
2018-04-12T09:17:23.214Z,72.77
2018-04-12T09:19:49.230Z,72.23
2018-04-12T09:22:15.058Z,73.02
2018-04-12T09:24:40.850Z,73.64
2018-04-12T09:27:06.965Z,76.30
2018-04-12T09:29:32.797Z,76.64
2018-04-12T09:31:58.620Z,72.80
2018-04-12T09:34:24.402Z,72.60
2018-04-12T09:36:50.314Z,70.71
2018-04-12T09:39:16.113Z,73.51
2018-04-12T09:41:41.927Z,72.73
2018-04-12T09:44:07.748Z,74.98
2018-04-12T09:46:33.547Z,71.38
2018-04-12T09:48:59.350Z,73.41
2018-04-12T09:51:25.122Z,72.65
2018-04-12T09:53:50.923Z,73.16
2018-04-12T09:56:16.896Z,72.88
2018-04-12T09:58:42.715Z,70.11
2018-04-12T10:01:11.431Z,71.26
2018-04-12T10:03:37.269Z,69.23
2018-04-12T10:06:04.970Z,68.67
2018-04-12T10:08:30.810Z,69.71
2018-04-12T10:10:56.604Z,69.36
2018-04-12T10:13:22.505Z,69.26
2018-04-12T10:15:48.338Z,70.34
2018-04-12T10:18:14.137Z,70.34
2018-04-12T10:20:40.520Z,71.04
2018-04-12T10:23:06.359Z,72.83
2018-04-12T10:25:32.167Z,72.12
2018-04-12T10:27:58.001Z,72.00
2018-04-12T10:30:24.445Z,71.43
2018-04-12T10:32:50.424Z,71.34
2018-04-12T10:35:17.004Z,70.68
2018-04-12T10:37:42.898Z,71.20
2018-04-12T10:40:08.830Z,71.85
2018-04-12T10:42:34.766Z,72.17
2018-04-12T10:45:03.187Z,69.53
2018-04-12T10:47:28.998Z,70.88
2018-04-12T10:49:54.807Z,70.49
2018-04-12T10:52:21.763Z,69.78
2018-04-12T10:54:47.587Z,69.04
2018-04-12T10:57:16.392Z,67.86
2018-04-12T10:59:42.287Z,67.41
2018-04-12T11:02:08.103Z,68.24
2018-04-12T11:04:33.992Z,68.15
2018-04-12T11:07:00.374Z,68.67
2018-04-12T11:09:26.278Z,69.76
2018-04-12T11:11:52.131Z,70.65
2018-04-12T11:14:17.949Z,71.79
2018-04-12T11:16:43.874Z,71.49
2018-04-12T11:19:09.717Z,72.04
2018-04-12T11:21:35.596Z,71.84
2018-04-12T11:24:02.642Z,71.45
2018-04-12T11:26:29.515Z,71.58
2018-04-12T11:28:55.355Z,71.13
2018-04-12T11:31:21.237Z,71.50
2018-04-12T11:33:47.074Z,71.98
2018-04-12T11:36:15.898Z,72.48
2018-04-12T11:38:41.782Z,71.79
2018-04-12T11:41:07.625Z,72.05
2018-04-12T11:43:33.435Z,71.82
2018-04-12T11:45:59.281Z,71.49
2018-04-12T11:48:27.924Z,70.99
2018-04-12T11:50:53.821Z,70.31
2018-04-12T11:53:19.885Z,70.29
2018-04-12T11:55:47.224Z,69.91
2018-04-12T11:58:13.048Z,70.05
2018-04-12T12:00:39.868Z,71.65
2018-04-12T12:03:06.082Z,71.47
2018-04-12T12:05:31.905Z,71.30
2018-04-12T12:07:57.721Z,71.81
2018-04-12T12:10:23.569Z,71.20
2018-04-12T12:12:49.387Z,71.30
2018-04-12T12:15:15.205Z,71.47
2018-04-12T12:17:41.021Z,71.59
2018-04-12T12:20:06.855Z,72.18
2018-04-12T12:22:32.657Z,71.58
2018-04-12T12:24:58.456Z,70.93
2018-04-12T12:27:25.117Z,70.93
2018-04-12T12:29:52.733Z,71.36
2018-04-12T12:32:18.545Z,71.25
2018-04-12T12:34:44.527Z,70.92
2018-04-12T12:37:10.409Z,71.17
2018-04-12T12:39:36.221Z,71.83
2018-04-12T12:42:03.007Z,71.24
2018-04-12T12:44:29.157Z,71.13
2018-04-12T12:46:54.970Z,71.46
2018-04-12T12:49:21.724Z,71.42
2018-04-12T12:51:48.870Z,71.95
2018-04-12T12:54:14.751Z,72.39
2018-04-12T12:56:40.558Z,72.89
2018-04-12T12:59:06.371Z,72.94
2018-04-12T13:01:32.194Z,73.51
2018-04-12T13:03:58.298Z,75.16
2018-04-12T13:06:25.102Z,73.75
2018-04-12T13:08:51.633Z,73.97
2018-04-12T13:11:17.474Z,73.80
2018-04-12T13:13:43.318Z,74.33
2018-04-12T13:16:09.140Z,76.29
2018-04-12T13:18:34.959Z,70.71
2018-04-12T13:21:00.777Z,72.84
2018-04-12T13:23:26.778Z,73.04
2018-04-12T13:25:52.919Z,73.19
2018-04-12T13:28:20.020Z,73.51
2018-04-12T13:30:45.854Z,73.77
2018-04-12T13:33:11.658Z,69.80
2018-04-12T13:35:37.442Z,67.31
2018-04-12T13:38:03.247Z,66.23
2018-04-12T13:40:29.143Z,66.50
2018-04-12T13:42:54.954Z,67.78
2018-04-12T13:45:21.296Z,67.29
2018-04-12T13:47:47.098Z,68.67
2018-04-12T13:50:12.954Z,69.08
2018-04-12T13:52:45.654Z,69.44
2018-04-12T13:55:11.498Z,67.85
2018-04-12T13:57:37.285Z,68.04
2018-04-12T14:00:03.095Z,68.29
2018-04-12T14:02:28.890Z,68.75
2018-04-12T14:04:54.661Z,70.36
2018-04-12T14:07:20.461Z,70.15
2018-04-12T14:09:46.265Z,70.27
2018-04-12T14:12:12.047Z,70.68
2018-04-12T14:14:37.857Z,71.68
2018-04-12T14:17:03.651Z,71.47
2018-04-12T14:19:29.427Z,71.08
2018-04-12T14:21:55.696Z,71.72
2018-04-12T14:24:22.818Z,71.73
2018-04-12T14:26:48.810Z,71.86
2018-04-12T14:29:14.613Z,72.35
2018-04-12T14:31:40.497Z,71.00
2018-04-12T14:34:06.552Z,70.96
2018-04-12T14:36:32.346Z,71.52
2018-04-12T14:38:58.124Z,71.68
2018-04-12T14:41:23.943Z,70.33
2018-04-12T14:43:49.742Z,70.39
2018-04-12T14:46:15.882Z,69.99
2018-04-12T14:48:41.696Z,69.11
2018-04-12T14:51:07.477Z,68.10
2018-04-12T14:53:33.304Z,68.35
2018-04-12T14:55:59.102Z,68.19
2018-04-12T14:58:24.899Z,68.26
2018-04-12T15:00:50.705Z,68.01
2018-04-12T15:03:16.501Z,69.33
2018-04-12T15:05:42.301Z,68.90
2018-04-12T15:08:08.101Z,68.75
2018-04-12T15:10:33.894Z,68.40
2018-04-12T15:12:59.946Z,67.75
2018-04-12T15:15:25.736Z,69.18
2018-04-12T15:17:51.524Z,68.97
2018-04-12T15:20:17.405Z,68.71
2018-04-12T15:22:43.190Z,68.97
2018-04-12T15:25:08.983Z,68.21
2018-04-12T15:27:34.811Z,67.75
2018-04-12T15:30:00.627Z,67.78
2018-04-12T15:32:26.411Z,68.60
2018-04-12T15:34:52.252Z,69.01
2018-04-12T15:37:18.047Z,69.86
2018-04-12T15:39:43.838Z,69.95
2018-04-12T15:42:09.898Z,70.27
2018-04-12T15:44:35.683Z,70.65
2018-04-12T15:47:01.502Z,70.04
2018-04-12T15:49:27.303Z,70.67
2018-04-12T15:51:53.360Z,71.14
2018-04-12T15:54:19.179Z,70.71
2018-04-12T15:56:44.971Z,70.61
2018-04-12T15:59:10.814Z,71.11
2018-04-12T16:01:36.625Z,71.63
2018-04-12T16:04:02.457Z,72.13
2018-04-12T16:06:28.265Z,69.08
2018-04-12T16:08:54.045Z,69.54
2018-04-12T16:11:19.833Z,70.06
2018-04-12T16:13:45.646Z,71.15
2018-04-12T16:16:11.448Z,71.53
2018-04-12T16:18:37.237Z,72.00
2018-04-12T16:21:03.069Z,72.75
2018-04-12T16:23:28.852Z,72.89
2018-04-12T16:25:54.663Z,73.10
2018-04-12T16:28:20.468Z,73.03
2018-04-12T16:30:46.268Z,73.40
2018-04-12T16:33:12.060Z,74.04
2018-04-12T16:35:37.870Z,73.68
2018-04-12T16:38:03.689Z,74.04
2018-04-12T16:40:29.471Z,74.73
2018-04-12T16:42:55.313Z,74.96
2018-04-12T16:45:21.141Z,74.56
2018-04-12T16:47:46.943Z,75.03
2018-04-12T16:50:12.875Z,74.92
2018-04-12T16:52:38.685Z,75.00
2018-04-12T16:55:04.481Z,74.89
2018-04-12T16:57:30.294Z,74.91
2018-04-12T16:59:56.133Z,75.44
2018-04-12T17:02:21.928Z,75.78
2018-04-12T17:04:48.013Z,76.13
2018-04-12T17:07:13.824Z,76.04
2018-04-12T17:09:39.642Z,80.79
2018-04-12T17:12:05.575Z,74.20
2018-04-12T17:14:31.384Z,75.74
2018-04-12T17:16:57.450Z,76.23
2018-04-12T17:19:23.650Z,76.78
2018-04-12T17:21:49.483Z,76.94
2018-04-12T17:24:15.351Z,77.38
2018-04-12T17:26:41.145Z,77.57
2018-04-12T17:29:06.950Z,77.41
2018-04-12T17:31:32.769Z,77.97
2018-04-12T17:33:58.741Z,76.67
2018-04-12T17:36:24.553Z,77.19
2018-04-12T17:38:50.669Z,81.01
2018-04-12T17:41:16.475Z,75.42
2018-04-12T17:43:42.258Z,76.25
2018-04-12T17:46:08.120Z,76.84
2018-04-12T17:48:33.919Z,79.24
2018-04-12T17:50:59.709Z,80.46
2018-04-12T17:53:25.500Z,78.71
2018-04-12T17:55:51.301Z,79.56
2018-04-12T17:58:17.095Z,80.13
2018-04-12T18:00:43.007Z,81.18
2018-04-12T18:03:08.819Z,78.29
2018-04-12T18:05:34.627Z,79.89
2018-04-12T18:08:00.440Z,79.75
2018-04-12T18:10:26.250Z,80.24
2018-04-12T18:12:52.070Z,80.68
2018-04-12T18:15:17.885Z,80.44
2018-04-12T18:17:43.702Z,80.79
2018-04-12T18:20:09.483Z,79.06
2018-04-12T18:22:35.298Z,77.30
2018-04-12T18:25:01.091Z,78.50
2018-04-12T18:27:26.888Z,80.20
2018-04-12T18:29:52.958Z,81.04
2018-04-12T18:32:18.749Z,81.49
2018-04-12T18:34:44.533Z,81.83
2018-04-12T18:37:10.314Z,81.92
2018-04-12T18:39:36.334Z,82.35
2018-04-12T18:42:02.136Z,82.79
2018-04-12T18:44:27.921Z,83.54
2018-04-12T18:46:54.097Z,83.10
2018-04-12T18:49:19.992Z,83.56
2018-04-12T18:51:46.038Z,83.37
2018-04-12T18:54:11.933Z,83.32
2018-04-12T18:56:37.734Z,83.81
2018-04-12T18:59:03.517Z,84.39
2018-04-12T19:01:29.381Z,83.98
2018-04-12T19:03:55.286Z,83.90
2018-04-12T19:06:21.089Z,84.05
2018-04-12T19:08:46.890Z,84.10
2018-04-12T19:11:12.727Z,83.48
2018-04-12T19:13:38.530Z,82.91
2018-04-12T19:16:04.340Z,82.87
2018-04-12T19:18:31.148Z,82.40
2018-04-12T19:20:56.938Z,83.44
2018-04-12T19:23:22.739Z,83.52
2018-04-12T19:25:48.794Z,84.16
2018-04-12T19:28:14.608Z,83.72
2018-04-12T19:30:40.440Z,84.10
2018-04-12T19:33:06.316Z,84.73
2018-04-12T19:35:33.413Z,84.13
2018-04-12T19:37:59.245Z,84.95
2018-04-12T19:40:25.412Z,83.97
2018-04-12T19:42:51.222Z,84.51
2018-04-12T19:45:17.067Z,85.18
2018-04-12T19:47:42.924Z,83.94
2018-04-12T19:50:08.762Z,84.59
2018-04-12T19:52:35.207Z,84.65
2018-04-12T19:55:01.636Z,83.87
2018-04-12T19:57:27.441Z,84.41
2018-04-12T19:59:53.263Z,85.16
2018-04-12T20:02:19.057Z,85.01
2018-04-12T20:04:44.864Z,85.21
2018-04-12T20:07:11.489Z,84.75
2018-04-12T20:09:37.290Z,85.41
2018-04-12T20:12:03.098Z,85.70
2018-04-12T20:14:28.921Z,86.07
2018-04-12T20:16:54.710Z,95.96
2018-04-12T20:19:20.529Z,85.98
2018-04-12T20:21:46.410Z,86.72
2018-04-12T20:24:13.573Z,83.34
2018-04-12T20:26:39.398Z,82.34
2018-04-12T20:29:05.231Z,80.34
2018-04-12T20:31:31.034Z,83.46
2018-04-12T20:33:56.858Z,83.98
2018-04-12T20:36:23.613Z,84.32
2018-04-12T20:38:50.435Z,85.25
2018-04-12T20:41:16.658Z,84.75
2018-04-12T20:43:42.494Z,87.26
2018-04-12T20:46:08.306Z,84.19
2018-04-12T20:48:34.108Z,85.03
2018-04-12T20:50:59.910Z,85.68
2018-04-12T20:53:26.013Z,85.81
2018-04-12T20:55:51.877Z,86.17
2018-04-12T20:58:17.706Z,86.02
2018-04-12T21:00:43.531Z,84.44
2018-04-12T21:03:09.345Z,85.20
2018-04-12T21:05:35.309Z,85.88
2018-04-12T21:08:01.224Z,86.12
2018-04-12T21:10:27.023Z,86.01
2018-04-12T21:12:52.819Z,86.24
2018-04-12T21:15:18.629Z,86.07
2018-04-12T21:17:44.424Z,86.69
2018-04-12T21:20:10.245Z,86.51
2018-04-12T21:22:36.101Z,86.75
2018-04-12T21:25:02.041Z,86.79
2018-04-12T21:27:28.077Z,86.68
2018-04-12T21:29:53.877Z,86.28
2018-04-12T21:32:19.721Z,86.45
2018-04-12T21:34:45.532Z,86.60
2018-04-12T21:37:11.605Z,87.06
2018-04-12T21:39:37.471Z,87.09
2018-04-12T21:42:03.302Z,87.18
2018-04-12T21:44:29.137Z,87.35
2018-04-12T21:46:54.969Z,88.02
2018-04-12T21:49:20.770Z,85.94
2018-04-12T21:51:46.599Z,87.52
2018-04-12T21:54:12.407Z,86.94
2018-04-12T21:56:38.206Z,86.85
2018-04-12T21:59:04.005Z,88.26
2018-04-12T22:01:29.841Z,86.30
2018-04-12T22:03:55.616Z,86.53
2018-04-12T22:06:21.434Z,86.25
2018-04-12T22:08:47.612Z,86.45
2018-04-12T22:11:13.405Z,87.05
2018-04-12T22:13:39.200Z,86.88
2018-04-12T22:16:05.038Z,86.76
2018-04-12T22:18:30.861Z,86.92
2018-04-12T22:20:56.654Z,86.88
2018-04-12T22:23:22.434Z,87.36
2018-04-12T22:25:48.437Z,87.38
2018-04-12T22:28:14.245Z,87.30
2018-04-12T22:30:40.024Z,87.51
2018-04-12T22:33:05.809Z,87.80
2018-04-12T22:35:31.623Z,87.85
2018-04-12T22:37:57.448Z,87.69
2018-04-12T22:40:23.240Z,88.27
2018-04-12T22:42:49.051Z,87.91
2018-04-12T22:45:14.880Z,88.07
2018-04-12T22:47:40.668Z,87.84
2018-04-12T22:50:06.441Z,87.94
2018-04-12T22:52:32.663Z,88.33
2018-04-12T22:54:58.454Z,88.56
2018-04-12T22:57:24.271Z,88.84
2018-04-12T22:59:50.099Z,88.29
2018-04-12T23:02:15.926Z,88.09
2018-04-12T23:04:41.708Z,88.05
2018-04-12T23:07:07.545Z,88.44
2018-04-12T23:09:33.344Z,88.50
2018-04-12T23:11:59.142Z,88.06
2018-04-12T23:14:24.968Z,88.54
2018-04-12T23:16:50.776Z,88.21
2018-04-12T23:19:16.584Z,88.51
2018-04-12T23:21:42.394Z,88.74
2018-04-12T23:24:08.182Z,88.20
2018-04-12T23:26:33.969Z,88.85
2018-04-12T23:28:59.789Z,88.58
2018-04-12T23:31:25.573Z,89.09
2018-04-12T23:33:51.381Z,88.38
2018-04-12T23:36:17.364Z,88.94
2018-04-12T23:38:43.145Z,88.56
2018-04-12T23:41:08.938Z,88.54
2018-04-12T23:43:34.729Z,88.08
2018-04-12T23:46:00.535Z,88.40
2018-04-12T23:48:26.449Z,88.39
2018-04-12T23:50:52.248Z,88.53
2018-04-12T23:53:18.081Z,88.17
2018-04-12T23:55:43.877Z,87.78
2018-04-12T23:58:09.685Z,88.81
